Time;durP1;ratioP1;P1;durP2;ratioP2;P2;SDS_P1;SDS_P2;PMS_P1;PMS_P2;Temp;Humidity;BMP_temperature;BMP_pressure;BME280_temperature;BME280_humidity;BME280_pressure;Samples;Min_cycle;Max_cycle;Signal;HPM_P1;HPM_P2
2021/01/25 00:01:22;;;;;;;12.25;5.65;;;;;;;12.28;46.61;99715.97;5112515;28;20085;-70
2021/01/25 00:03:47;;;;;;;9.13;5.35;;;;;;;12.23;46.69;99713.16;5094304;28;20032;-70
2021/01/25 00:06:13;;;;;;;9.67;5.57;;;;;;;11.89;47.90;99715.59;5114940;28;20378;-70
2021/01/25 00:08:39;;;;;;;15.60;6.50;;;;;;;11.90;47.79;99715.34;5095438;28;20479;-70
2021/01/25 00:11:05;;;;;;;13.07;6.23;;;;;;;12.07;47.66;99701.28;5095024;28;20126;-71
2021/01/25 00:13:30;;;;;;;11.05;5.28;;;;;;;12.22;47.17;99695.47;5110960;28;20292;-60
2021/01/25 00:15:56;;;;;;;9.00;4.93;;;;;;;12.21;47.63;99727.84;5111964;28;20475;-71
2021/01/25 00:18:22;;;;;;;11.50;5.67;;;;;;;12.33;47.22;99717.94;5111977;28;20585;-70
2021/01/25 00:20:47;;;;;;;14.23;6.73;;;;;;;12.38;47.29;99720.72;5111414;28;20225;-71
2021/01/25 00:23:13;;;;;;;10.30;5.80;;;;;;;12.55;46.79;99725.38;5076909;28;20031;-71
2021/01/25 00:25:38;;;;;;;10.20;5.93;;;;;;;12.42;47.22;99721.88;5111074;28;20276;-71
2021/01/25 00:28:04;;;;;;;15.50;7.70;;;;;;;12.48;47.26;99731.69;5093807;28;20043;-71
2021/01/25 00:30:30;;;;;;;14.85;7.18;;;;;;;12.55;47.24;99728.06;5093107;28;20035;-60
2021/01/25 00:32:56;;;;;;;13.18;6.03;;;;;;;12.38;47.18;99728.78;5093129;28;20439;-70
2021/01/25 00:35:21;;;;;;;12.95;5.80;;;;;;;12.34;47.37;99716.88;5093595;28;20050;-70
2021/01/25 00:37:47;;;;;;;10.93;6.27;;;;;;;12.31;47.66;99717.38;5092711;28;20036;-71
2021/01/25 00:40:13;;;;;;;11.77;5.40;;;;;;;12.39;47.49;99722.34;5111869;28;20153;-70
2021/01/25 00:42:38;;;;;;;10.18;5.90;;;;;;;12.37;47.51;99724.47;5110761;28;20044;-69
2021/01/25 00:45:05;;;;;;;14.60;5.33;;;;;;;13.18;45.45;99736.28;5111541;28;20036;-70
2021/01/25 00:47:31;;;;;;;14.20;6.20;;;;;;;13.67;44.21;99730.44;5111586;28;20122;-62
2021/01/25 00:49:57;;;;;;;13.30;6.80;;;;;;;13.74;43.68;99736.50;5111427;28;20122;-70
2021/01/25 00:52:23;;;;;;;17.73;7.00;;;;;;;13.97;43.20;99737.41;5076276;28;20074;-70
2021/01/25 00:54:49;;;;;;;18.40;8.13;;;;;;;14.02;43.12;99732.09;5092374;28;20089;-70
2021/01/25 00:57:15;;;;;;;13.63;6.97;;;;;;;14.14;42.96;99732.00;5076591;28;20048;-71
2021/01/25 00:59:42;;;;;;;12.43;6.93;;;;;;;13.66;43.91;99733.41;5092374;28;20027;-70
2021/01/25 01:02:08;;;;;;;14.68;4.78;;;;;;;13.62;43.89;99728.50;5111545;28;20082;-70
2021/01/25 01:04:33;;;;;;;15.18;6.82;;;;;;;13.86;43.52;99736.41;5111174;28;20479;-61
2021/01/25 01:06:59;;;;;;;6.67;4.53;;;;;;;13.79;43.34;99741.13;5092847;28;20058;-69
2021/01/25 01:09:24;;;;;;;11.17;5.87;;;;;;;13.68;43.65;99739.34;5111553;28;20336;-70
2021/01/25 01:11:50;;;;;;;11.10;5.50;;;;;;;13.49;44.18;99744.94;5110450;28;20047;-69
2021/01/25 01:14:15;;;;;;;14.73;5.77;;;;;;;13.51;44.02;99748.19;5093646;28;20052;-69
2021/01/25 01:16:41;;;;;;;10.63;5.50;;;;;;;13.69;43.94;99740.97;5094338;28;20489;-69
2021/01/25 01:19:07;;;;;;;11.23;5.63;;;;;;;13.83;43.85;99754.91;5095173;28;20036;-70
2021/01/25 01:21:32;;;;;;;8.80;5.10;;;;;;;13.60;44.01;99749.41;5095193;28;20127;-70
2021/01/25 01:23:58;;;;;;;15.23;4.90;;;;;;;13.54;43.96;99758.44;5094803;28;20046;-70
2021/01/25 01:26:23;;;;;;;11.27;5.47;;;;;;;13.79;43.60;99751.88;5095085;28;20077;-70
2021/01/25 01:28:49;;;;;;;13.73;6.13;;;;;;;14.00;43.11;99760.25;5075987;28;20402;-70
2021/01/25 01:31:15;;;;;;;11.40;5.50;;;;;;;13.76;43.64;99766.63;5093380;28;20416;-70
2021/01/25 01:33:40;;;;;;;14.33;5.57;;;;;;;13.67;44.05;99761.88;5075767;28;20039;-70
2021/01/25 01:36:06;;;;;;;12.63;5.70;;;;;;;13.89;43.50;99767.34;5093300;28;20534;-70
2021/01/25 01:38:31;;;;;;;13.68;5.13;;;;;;;13.53;43.47;99759.50;5094907;28;20084;-70
2021/01/25 01:41:00;;;;;;;12.20;4.93;;;;;;;13.76;43.82;99760.41;5093786;28;20177;-70
2021/01/25 01:43:26;;;;;;;9.32;4.72;;;;;;;13.66;43.82;99762.94;5094616;28;20487;-70
2021/01/25 01:45:52;;;;;;;8.50;4.95;;;;;;;13.81;43.54;99763.19;5093550;28;20028;-70
2021/01/25 01:48:17;;;;;;;12.30;5.57;;;;;;;13.68;43.93;99766.22;5094445;28;20036;-71
2021/01/25 01:50:43;;;;;;;11.77;6.10;;;;;;;13.67;44.04;99765.38;5093656;28;20032;-69
2021/01/25 01:53:09;;;;;;;15.18;6.55;;;;;;;13.59;43.99;99760.41;5092921;28;20040;-70
2021/01/25 01:55:35;;;;;;;17.65;8.43;;;;;;;14.03;43.38;99770.53;5094648;28;20042;-70
2021/01/25 01:58:02;;;;;;;20.77;10.50;;;;;;;14.03;43.18;99763.28;5075506;28;20467;-70
2021/01/25 02:00:28;;;;;;;19.60;11.30;;;;;;;14.22;42.65;99775.66;5094095;28;20498;-70
2021/01/25 02:02:53;;;;;;;23.87;11.60;;;;;;;14.20;42.42;99773.22;5093597;28;20044;-69
2021/01/25 02:05:19;;;;;;;23.10;12.23;;;;;;;14.17;42.29;99774.53;5094232;28;20313;-70
2021/01/25 02:07:48;;;;;;;25.52;12.88;;;;;;;14.36;42.05;99779.66;5092249;28;20036;-69
2021/01/25 02:10:14;;;;;;;24.95;13.48;;;;;;;14.29;41.80;99785.19;5076067;28;20476;-69
2021/01/25 02:12:42;;;;;;;24.88;13.00;;;;;;;14.00;42.43;99776.41;5092448;28;20074;-61
2021/01/25 02:15:08;;;;;;;30.08;13.85;;;;;;;14.11;42.04;99778.19;5113705;28;20039;-70
2021/01/25 02:17:34;;;;;;;27.48;13.68;;;;;;;14.26;41.90;99790.22;5114133;28;20043;-69
2021/01/25 02:20:05;;;;;;;26.57;14.20;;;;;;;14.21;41.91;99788.31;5095199;28;20263;-70
2021/01/25 02:22:37;;;;;;;29.60;15.55;;;;;;;14.18;41.99;99784.22;5114183;28;20271;-69
2021/01/25 02:25:14;;;;;;;25.83;13.63;;;;;;;14.26;41.98;99791.06;5112021;28;20071;-70
2021/01/25 02:27:43;;;;;;;25.33;13.57;;;;;;;14.26;42.24;99790.22;5113959;28;20047;-62
2021/01/25 02:30:12;;;;;;;24.38;12.65;;;;;;;14.22;42.24;99794.47;5113943;28;20110;-70
2021/01/25 02:32:38;;;;;;;28.13;13.20;;;;;;;14.46;41.67;99785.16;5113925;28;20087;-70
2021/01/25 02:35:06;;;;;;;24.30;13.80;;;;;;;14.38;41.63;99782.06;5095099;28;20147;-70
2021/01/25 02:37:33;;;;;;;32.00;13.48;;;;;;;14.67;40.96;99787.34;5095698;28;20047;-70
2021/01/25 02:40:00;;;;;;;25.33;12.45;;;;;;;14.46;41.71;99793.22;5112760;28;20118;-70
2021/01/25 02:42:27;;;;;;;28.58;14.27;;;;;;;14.53;41.49;99801.13;5078680;28;20039;-70
2021/01/25 02:44:54;;;;;;;24.77;12.67;;;;;;;14.69;41.26;99795.97;5094889;28;20437;-70
2021/01/25 02:47:22;;;;;;;30.13;12.90;;;;;;;14.28;42.02;99806.94;5113487;28;20286;-70
2021/01/25 02:49:47;;;;;;;27.48;14.27;;;;;;;14.73;41.25;99802.50;5094432;28;20047;-69
2021/01/25 02:52:16;;;;;;;23.47;13.50;;;;;;;14.37;41.86;99796.59;5113323;28;20123;-69
2021/01/25 02:54:43;;;;;;;33.63;15.18;;;;;;;14.58;41.36;99800.41;5094633;28;20031;-61
2021/01/25 02:57:11;;;;;;;28.63;14.10;;;;;;;14.70;41.17;99800.28;5078038;28;20114;-70
2021/01/25 02:59:38;;;;;;;31.50;14.60;;;;;;;14.69;41.21;99804.06;5095244;28;20463;-70
2021/01/25 03:02:08;;;;;;;29.23;13.45;;;;;;;14.36;41.84;99806.53;5094285;28;20066;-70
2021/01/25 03:04:35;;;;;;;27.75;14.65;;;;;;;14.27;42.48;99800.75;5113407;28;20031;-70
2021/01/25 03:07:02;;;;;;;26.08;13.48;;;;;;;14.34;42.08;99814.03;5094218;28;20050;-69
2021/01/25 03:09:27;;;;;;;24.50;13.38;;;;;;;14.57;41.73;99809.53;5113424;28;20039;-71
2021/01/25 03:11:56;;;;;;;28.93;14.67;;;;;;;14.44;41.95;99810.69;5077051;28;20499;-70
2021/01/25 03:14:22;;;;;;;27.83;15.40;;;;;;;14.33;42.22;99812.41;5113059;28;20051;-69
2021/01/25 03:16:47;;;;;;;31.75;15.88;;;;;;;14.25;42.30;99815.50;5094193;28;20036;-59
2021/01/25 03:19:13;;;;;;;31.20;16.00;;;;;;;14.49;41.76;99821.53;5094806;28;20392;-69
2021/01/25 03:21:46;;;;;;;31.60;16.63;;;;;;;14.30;42.42;99820.94;5095106;28;20081;-71
2021/01/25 03:24:12;;;;;;;36.60;17.35;;;;;;;14.34;42.08;99830.19;5112582;28;20040;-70
2021/01/25 03:26:38;;;;;;;33.25;17.00;;;;;;;14.23;42.44;99820.31;5094834;28;20038;-70
2021/01/25 03:29:03;;;;;;;37.40;17.57;;;;;;;14.15;42.85;99818.84;5111924;28;20051;-69
2021/01/25 03:31:29;;;;;;;33.60;18.07;;;;;;;14.32;42.08;99833.09;5113143;28;20516;-70
2021/01/25 03:33:54;;;;;;;35.87;16.10;;;;;;;14.28;42.34;99831.13;5093526;28;20086;-69
2021/01/25 03:36:20;;;;;;;28.47;13.90;;;;;;;14.27;42.31;99838.41;5112632;28;20039;-70
2021/01/25 03:38:46;;;;;;;26.75;13.55;;;;;;;14.37;42.29;99840.44;5112837;28;20468;-61
2021/01/25 03:41:11;;;;;;;29.50;16.03;;;;;;;14.82;41.24;99840.59;5094180;28;20379;-70
2021/01/25 03:43:37;;;;;;;29.77;15.48;;;;;;;15.00;40.70;99845.69;5112599;28;20027;-70
2021/01/25 03:46:03;;;;;;;34.03;16.27;;;;;;;14.79;40.88;99858.03;5093709;28;20035;-70
2021/01/25 03:48:28;;;;;;;32.05;15.88;;;;;;;14.41;42.02;99863.09;5094232;28;20467;-71
2021/01/25 03:50:54;;;;;;;34.37;17.57;;;;;;;14.60;41.53;99860.16;5093640;28;20067;-70
2021/01/25 03:53:19;;;;;;;28.77;16.17;;;;;;;14.66;41.41;99861.06;5094463;28;20525;-70
2021/01/25 03:55:45;;;;;;;35.50;17.77;;;;;;;14.72;41.17;99863.59;5112345;28;20472;-71
2021/01/25 03:58:11;;;;;;;32.28;16.35;;;;;;;14.76;41.20;99872.81;5111766;28;20313;-70
2021/01/25 04:00:37;;;;;;;31.35;16.60;;;;;;;14.82;40.90;99868.28;5112798;28;20439;-71
2021/01/25 04:03:02;;;;;;;31.60;16.43;;;;;;;14.91;40.68;99861.44;5111880;28;20039;-70
2021/01/25 04:05:28;;;;;;;32.47;15.55;;;;;;;14.74;41.00;99864.16;5112776;28;20039;-70
2021/01/25 04:07:53;;;;;;;31.17;16.10;;;;;;;14.72;41.25;99873.53;5077383;28;20381;-70
2021/01/25 04:10:19;;;;;;;31.20;17.87;;;;;;;14.98;40.45;99872.00;5113964;28;20107;-71
2021/01/25 04:12:45;;;;;;;34.83;19.00;;;;;;;15.30;39.61;99874.06;5094558;28;20474;-71
2021/01/25 04:15:11;;;;;;;31.15;15.35;;;;;;;15.43;39.56;99882.81;5092856;28;20637;-70
2021/01/25 04:17:37;;;;;;;36.28;17.90;;;;;;;14.56;41.17;99885.94;5112081;28;20036;-70
2021/01/25 04:20:04;;;;;;;35.75;18.85;;;;;;;14.25;41.61;99888.09;5110987;28;20047;-70
2021/01/25 04:22:30;;;;;;;31.75;17.27;;;;;;;14.31;41.34;99895.22;5093547;28;20078;-69
2021/01/25 04:24:56;;;;;;;38.03;18.80;;;;;;;14.24;41.39;99894.53;5111323;28;20031;-69
2021/01/25 04:27:21;;;;;;;36.88;18.33;;;;;;;14.16;41.23;99901.13;5112404;28;20346;-69
2021/01/25 04:29:47;;;;;;;39.40;18.70;;;;;;;13.98;41.69;99907.53;5112141;28;20462;-68
2021/01/25 04:32:12;;;;;;;37.93;19.17;;;;;;;14.04;41.69;99909.25;5092950;28;20122;-71
2021/01/25 04:34:37;;;;;;;38.80;19.27;;;;;;;14.38;40.97;99906.63;5076900;28;20084;-70
2021/01/25 04:37:04;;;;;;;38.97;19.60;;;;;;;14.03;41.26;99904.94;5092741;28;20046;-69
2021/01/25 04:39:30;;;;;;;39.85;20.15;;;;;;;14.02;41.47;99909.50;5111941;28;20074;-69
2021/01/25 04:41:55;;;;;;;39.78;19.08;;;;;;;13.94;42.01;99911.78;5111085;28;20070;-64
2021/01/25 04:44:25;;;;;;;37.28;18.83;;;;;;;14.23;41.10;99917.94;5111918;28;20386;-69
2021/01/25 04:46:52;;;;;;;41.25;20.45;;;;;;;14.16;41.04;99920.78;5075961;28;20046;-69
2021/01/25 04:49:19;;;;;;;41.95;21.17;;;;;;;14.15;40.99;99918.31;5092953;28;20117;-69
2021/01/25 04:51:45;;;;;;;;;;;;;;;14.14;41.36;99916.69;5093963;28;20036;-69
2021/01/25 04:54:14;;;;;;;35.30;19.20;;;;;;;14.35;41.05;99920.56;5092507;28;20010;-69
2021/01/25 04:56:40;;;;;;;41.28;20.90;;;;;;;14.28;40.85;99919.88;5093242;28;20538;-69
2021/01/25 04:59:06;;;;;;;42.95;20.48;;;;;;;13.95;41.54;99922.25;5110694;28;20059;-70
2021/01/25 05:01:32;;;;;;;39.08;19.95;;;;;;;14.09;41.43;99933.56;5111565;28;20062;-71
2021/01/25 05:03:57;;;;;;;38.03;20.07;;;;;;;14.11;41.05;99942.19;5092666;28;20067;-68
2021/01/25 05:06:23;;;;;;;39.27;20.83;;;;;;;14.21;41.33;99949.63;5111722;28;20035;-70
2021/01/25 05:08:48;;;;;;;34.90;18.17;;;;;;;14.38;40.29;99948.84;5076533;28;20383;-71
2021/01/25 05:11:16;;;;;;;38.20;20.10;;;;;;;14.50;40.09;99957.66;5092457;28;20050;-71
2021/01/25 05:13:42;;;;;;;37.78;20.05;;;;;;;14.54;40.31;99958.81;5092923;28;20185;-70
2021/01/25 05:16:19;;;;;;;38.58;19.70;;;;;;;14.50;39.96;99963.03;5092315;28;20130;-70
2021/01/25 05:18:46;;;;;;;34.38;18.25;;;;;;;14.39;40.41;99970.13;5111700;28;20040;-70
2021/01/25 05:21:12;;;;;;;34.83;18.00;;;;;;;14.41;40.49;99969.84;5075568;28;20093;-70
2021/01/25 05:23:39;;;;;;;43.90;19.83;;;;;;;14.24;40.43;99969.84;5111402;28;20378;-71
2021/01/25 05:26:06;;;;;;;35.08;19.10;;;;;;;14.23;40.58;99974.41;5092666;28;20096;-71
2021/01/25 05:28:40;;;;;;;38.90;20.52;;;;;;;13.97;41.22;99979.31;5076794;28;20115;-71
2021/01/25 05:31:23;;;;;;;41.58;20.88;;;;;;;13.97;41.18;99986.53;5092356;28;20044;-70
2021/01/25 05:33:50;;;;;;;36.65;20.02;;;;;;;13.84;41.42;99984.94;5076033;28;20040;-71
2021/01/25 05:36:19;;;;;;;;;;;;;;;13.85;41.11;99987.41;5110739;28;20051;-72
2021/01/25 05:38:47;;;;;;;38.53;19.67;;;;;;;13.78;40.96;99989.41;5075903;28;20393;-71
2021/01/25 05:41:12;;;;;;;45.90;22.85;;;;;;;13.68;41.06;99986.50;5075274;28;20032;-71
2021/01/25 05:43:38;;;;;;;34.58;19.20;;;;;;;13.51;41.02;99976.50;5111576;28;20045;-71
2021/01/25 05:46:10;;;;;;;47.10;23.77;;;;;;;13.60;40.79;99974.25;5091485;28;20040;-71
2021/01/25 05:48:36;;;;;;;44.65;22.90;;;;;;;13.63;40.87;99971.09;5075850;28;20043;-71
2021/01/25 05:51:13;;;;;;;48.47;24.45;;;;;;;13.44;40.79;99965.88;5094981;28;20480;-70
2021/01/25 05:53:40;;;;;;;49.67;25.60;;;;;;;13.52;40.71;99975.44;5070789;28;20119;-71
2021/01/25 05:56:07;;;;;;;52.60;23.67;;;;;;;13.48;40.98;99976.97;5052098;28;20360;-69
2021/01/25 05:58:32;;;;;;;;;;;;;;;13.35;41.05;99988.75;5054040;28;20107;-70
2021/01/25 06:00:59;;;;;;;51.70;23.37;;;;;;;13.29;41.26;99987.81;5073911;28;19954;-62
2021/01/25 06:03:27;;;;;;;53.22;24.80;;;;;;;13.38;40.89;99990.13;5055664;28;20032;-70
2021/01/25 06:05:52;;;;;;;54.90;26.73;;;;;;;13.17;41.24;99990.50;5056053;28;20369;-70
2021/01/25 06:08:34;;;;;;;50.97;25.45;;;;;;;13.12;41.18;99989.56;5038511;28;20574;-70
2021/01/25 06:11:16;;;;;;;44.10;23.05;;;;;;;13.04;41.43;100001.47;5073751;28;20120;-59
2021/01/25 06:13:47;;;;;;;49.47;24.70;;;;;;;12.86;41.78;100007.72;5073902;28;20048;-70
2021/01/25 06:16:14;;;;;;;45.83;22.80;;;;;;;12.94;41.55;100009.28;5071714;28;20559;-69
2021/01/25 06:18:42;;;;;;;48.03;25.60;;;;;;;13.01;41.51;100008.13;5073995;28;20093;-70
2021/01/25 06:21:10;;;;;;;49.92;24.48;;;;;;;12.81;42.08;100015.66;5073158;28;20040;-69
2021/01/25 06:23:37;;;;;;;51.83;25.50;;;;;;;12.82;41.72;100026.19;5073986;28;20040;-70
2021/01/25 06:26:03;;;;;;;;;;;;;;;12.80;41.59;100024.75;5073488;28;20128;-61
2021/01/25 06:28:32;;;;;;;54.13;24.48;;;;;;;12.74;41.50;100032.69;5073681;28;19916;-70
2021/01/25 06:30:57;;;;;;;47.75;25.00;;;;;;;12.70;41.80;100034.19;5069090;28;20055;-70
2021/01/25 06:33:23;;;;;;;60.80;27.00;;;;;;;12.88;41.41;100040.53;5101308;28;20031;-70
2021/01/25 06:35:50;;;;;;;53.38;25.92;;;;;;;12.95;41.17;100043.94;5107715;28;20515;-70
2021/01/25 06:38:17;;;;;;;49.40;23.38;;;;;;;12.48;41.73;100048.13;5094836;28;20047;-69
2021/01/25 06:40:44;;;;;;;59.83;27.35;;;;;;;12.43;42.16;100047.97;5092284;28;20067;-69
2021/01/25 06:43:13;;;;;;;54.00;26.70;;;;;;;12.70;41.60;100052.97;5092630;28;20027;-69
2021/01/25 06:45:39;;;;;;;58.13;27.55;;;;;;;12.69;41.44;100054.03;5110377;28;20044;-70
2021/01/25 06:48:07;;;;;;;53.08;28.30;;;;;;;12.66;41.64;100049.09;5113123;28;20516;-59
2021/01/25 06:50:35;;;;;;;57.55;27.95;;;;;;;12.70;41.40;100069.09;5110539;28;20063;-69
2021/01/25 06:53:02;;;;;;;66.75;28.38;;;;;;;12.75;41.59;100073.75;5101891;28;20125;-69
2021/01/25 06:55:32;;;;;;;61.20;28.30;;;;;;;12.54;41.88;100081.25;5084592;28;20040;-69
2021/01/25 06:58:04;;;;;;;62.47;27.15;;;;;;;12.47;41.79;100081.34;5080381;28;20032;-71
2021/01/25 07:00:32;;;;;;;58.80;27.45;;;;;;;12.66;41.48;100086.66;5092782;28;20119;-71
2021/01/25 07:02:59;;;;;;;60.28;27.42;;;;;;;12.68;41.36;100089.13;5058480;28;20040;-70
2021/01/25 07:05:33;;;;;;;55.67;27.10;;;;;;;12.71;41.63;100094.84;5073626;28;20047;-70
2021/01/25 07:08:21;;;;;;;55.88;27.10;;;;;;;13.01;40.80;100106.59;5058451;28;20098;-70
2021/01/25 07:11:03;;;;;;;53.53;26.20;;;;;;;12.94;40.51;100100.50;5092105;28;20055;-70
2021/01/25 07:13:31;;;;;;;59.70;27.48;;;;;;;12.93;40.56;100107.75;5091544;28;20127;-71
2021/01/25 07:15:57;;;;;;;59.28;26.80;;;;;;;12.89;40.67;100117.28;5058179;28;20059;-71
2021/01/25 07:18:24;;;;;;;54.88;25.65;;;;;;;12.69;41.08;100131.81;5088528;28;20095;-71
2021/01/25 07:20:52;;;;;;;57.08;28.27;;;;;;;12.51;41.50;100137.22;5087321;28;20043;-71
2021/01/25 07:23:19;;;;;;;67.00;29.65;;;;;;;12.50;41.46;100135.59;5091630;28;20051;-71
2021/01/25 07:25:46;;;;;;;60.58;30.00;;;;;;;12.37;41.46;100131.19;5092207;28;20488;-69
2021/01/25 07:28:12;;;;;;;60.40;29.35;;;;;;;12.40;41.48;100139.59;5097035;28;20063;-72
2021/01/25 07:30:37;;;;;;;57.97;28.13;;;;;;;12.42;41.21;100150.91;5064810;28;20468;-71
2021/01/25 07:33:03;;;;;;;56.97;25.50;;;;;;;12.47;41.19;100153.75;5070358;28;20380;-71
2021/01/25 07:35:29;;;;;;;56.60;27.58;;;;;;;12.44;41.67;100158.75;5053579;28;20097;-71
2021/01/25 07:37:55;;;;;;;66.13;27.48;;;;;;;12.53;40.94;100160.06;5088885;28;20036;-71
2021/01/25 07:40:24;;;;;;;61.27;28.47;;;;;;;12.42;41.70;100166.19;5105706;28;20506;-71
2021/01/25 07:42:50;;;;;;;63.72;30.70;;;;;;;12.63;40.93;100162.22;5074030;28;20332;-72
2021/01/25 07:45:16;;;;;;;58.17;27.67;;;;;;;12.66;40.54;100160.97;5073018;28;20040;-72
2021/01/25 07:47:46;;;;;;;53.42;27.10;;;;;;;12.67;40.60;100179.50;5091134;28;20441;-72
2021/01/25 07:50:12;;;;;;;56.55;26.45;;;;;;;12.67;40.38;100176.81;5068618;28;20036;-62
2021/01/25 07:52:38;;;;;;;58.30;26.88;;;;;;;12.64;40.50;100174.59;5074731;28;20036;-72
2021/01/25 07:55:16;;;;;;;52.97;26.23;;;;;;;12.77;40.41;100189.69;5074776;28;20390;-71
2021/01/25 07:57:43;;;;;;;55.85;25.73;;;;;;;12.74;40.16;100190.16;5092710;28;20269;-71
2021/01/25 08:00:22;;;;;;;58.42;27.88;;;;;;;12.58;40.69;100205.00;5060240;28;20036;-61
2021/01/25 08:03:09;;;;;;;63.90;27.50;;;;;;;12.61;40.80;100208.06;5092713;28;20047;-71
2021/01/25 08:05:35;;;;;;;62.03;27.70;;;;;;;12.59;40.71;100209.31;5092189;28;20063;-71
2021/01/25 08:08:08;;;;;;;53.17;24.55;;;;;;;12.62;40.77;100215.06;5054992;28;20036;-72
2021/01/25 08:10:34;;;;;;;55.20;26.35;;;;;;;12.71;40.68;100222.81;5070988;28;20046;-71
2021/01/25 08:13:02;;;;;;;62.45;25.63;;;;;;;12.59;41.12;100225.41;5041526;28;20721;-63
2021/01/25 08:15:33;;;;;;;55.80;26.58;;;;;;;12.55;40.76;100225.03;5088334;28;20116;-71
2021/01/25 08:18:07;;;;;;;51.50;26.40;;;;;;;12.65;40.86;100229.06;5090806;28;20040;-71
2021/01/25 08:20:38;;;;;;;53.55;26.08;;;;;;;12.84;40.65;100225.34;5090620;28;20031;-72
2021/01/25 08:23:22;;;;;;;56.40;27.40;;;;;;;13.29;39.90;100224.09;5072807;28;20054;-73
2021/01/25 08:26:00;;;;;;;56.67;26.40;;;;;;;13.55;39.56;100224.78;5074284;28;20032;-71
2021/01/25 08:28:35;;;;;;;53.67;25.63;;;;;;;13.65;39.38;100229.59;5090784;28;20120;-72
2021/01/25 08:31:17;;;;;;;42.05;22.10;;;;;;;13.25;40.80;100238.22;5073428;28;20168;-71
2021/01/25 08:33:56;;;;;;;48.88;23.80;;;;;;;13.11;40.53;100249.16;5090469;28;20054;-71
2021/01/25 08:36:34;;;;;;;46.67;23.00;;;;;;;13.04;40.81;100243.84;5090493;28;20040;-70
2021/01/25 08:39:17;;;;;;;50.90;23.55;;;;;;;13.01;40.35;100238.94;5072987;28;20043;-71
2021/01/25 08:41:49;;;;;;;52.17;25.40;;;;;;;12.78;41.25;100266.47;5091108;28;20181;-71
2021/01/25 08:44:18;;;;;;;48.90;24.88;;;;;;;12.74;40.97;100259.91;5090874;28;20120;-62
2021/01/25 08:46:44;;;;;;;61.75;27.73;;;;;;;12.95;40.58;100264.00;5090898;28;20024;-70
2021/01/25 08:49:10;;;;;;;;;;;;;;;13.18;40.42;100265.16;5091542;28;20055;-71
2021/01/25 08:51:37;;;;;;;54.57;25.83;;;;;;;13.16;40.13;100267.25;5090061;28;19915;-70
2021/01/25 08:54:11;;;;;;;67.78;27.60;;;;;;;13.12;40.34;100279.47;5091045;28;20043;-71
2021/01/25 08:56:39;;;;;;;52.67;24.00;;;;;;;12.97;40.89;100291.44;5090116;28;20235;-71
2021/01/25 08:59:13;;;;;;;51.30;25.15;;;;;;;13.09;40.63;100286.13;5091160;28;20082;-71
2021/01/25 09:01:41;;;;;;;51.58;25.13;;;;;;;13.05;40.56;100298.38;5071898;28;20040;-71
2021/01/25 09:04:08;;;;;;;46.55;22.42;;;;;;;13.20;40.30;100303.34;5091271;28;20036;-72
2021/01/25 09:06:47;;;;;;;49.92;23.02;;;;;;;13.26;40.47;100305.13;5090157;28;20040;-69
2021/01/25 09:09:13;;;;;;;60.53;23.13;;;;;;;13.48;40.06;100292.03;5090857;28;20044;-71
2021/01/25 09:11:38;;;;;;;36.13;19.17;;;;;;;13.66;39.92;100297.59;5089362;28;20040;-71
2021/01/25 09:14:04;;;;;;;49.60;22.23;;;;;;;13.68;39.78;100293.63;5073032;28;20048;-71
2021/01/25 09:16:29;;;;;;;42.72;21.05;;;;;;;13.99;39.49;100307.00;5071774;28;20043;-73
2021/01/25 09:18:55;;;;;;;40.60;21.27;;;;;;;15.85;37.28;100310.06;5091113;28;20391;-71
2021/01/25 09:21:20;;;;;;;45.30;20.97;;;;;;;17.44;35.10;100310.69;5090180;28;20125;-67
2021/01/25 09:23:46;;;;;;;33.40;17.20;;;;;;;18.37;32.51;100318.78;5091299;28;20165;-72
2021/01/25 09:26:11;;;;;;;31.30;16.87;;;;;;;19.23;31.47;100317.88;5055870;28;20068;-71
2021/01/25 09:28:37;;;;;;;29.53;15.53;;;;;;;19.84;30.42;100322.63;5090150;28;20039;-72
2021/01/25 09:31:02;;;;;;;34.33;15.77;;;;;;;20.55;29.34;100330.19;5053247;28;20483;-69
2021/01/25 09:33:28;;;;;;;24.47;14.67;;;;;;;21.13;28.19;100335.19;5070400;28;20050;-69
2021/01/25 09:35:53;;;;;;;24.33;13.02;;;;;;;21.78;27.34;100341.63;5056465;28;20507;-72
2021/01/25 09:38:19;;;;;;;25.10;13.40;;;;;;;22.25;26.35;100341.25;5056021;28;20033;-65
2021/01/25 09:40:44;;;;;;;21.07;12.47;;;;;;;21.96;26.51;100350.22;5074163;28;20040;-71
2021/01/25 09:43:10;;;;;;;20.93;10.60;;;;;;;21.78;26.91;100337.00;5075152;28;20044;-72
2021/01/25 09:45:35;;;;;;;19.60;11.03;;;;;;;22.36;25.71;100356.41;5073728;28;20352;-72
2021/01/25 09:48:04;;;;;;;28.67;12.33;;;;;;;22.92;24.91;100360.47;5073880;28;20361;-71
2021/01/25 09:50:30;;;;;;;21.93;13.00;;;;;;;22.89;25.28;100354.81;5073743;28;20115;-71
2021/01/25 09:52:56;;;;;;;23.33;12.25;;;;;;;23.16;24.85;100375.22;5074194;28;20368;-71
2021/01/25 09:55:22;;;;;;;20.95;12.05;;;;;;;23.83;24.25;100366.13;5055797;28;20040;-70
2021/01/25 09:57:47;;;;;;;21.10;11.30;;;;;;;23.85;24.32;100380.31;5073943;28;20442;-72
2021/01/25 10:00:15;;;;;;;22.02;11.23;;;;;;;24.63;23.74;100379.03;5074176;28;20455;-72
2021/01/25 10:02:41;;;;;;;22.47;11.63;;;;;;;24.62;23.41;100397.34;5072855;28;20040;-71
2021/01/25 10:05:08;;;;;;;20.23;11.02;;;;;;;24.86;23.26;100398.31;5074505;28;20265;-71
2021/01/25 10:07:35;;;;;;;20.50;11.20;;;;;;;25.47;22.50;100400.94;5073365;28;20117;-71
2021/01/25 10:10:02;;;;;;;;;;;;;;;25.29;22.52;100408.94;5057129;28;20281;-72
2021/01/25 10:12:29;;;;;;;17.05;10.35;;;;;;;25.51;22.58;100412.91;5048418;28;19939;-72
2021/01/25 10:14:54;;;;;;;;;;;;;;;25.58;22.48;100413.28;5088853;28;20048;-71
2021/01/25 10:17:20;;;;;;;15.80;9.83;;;;;;;25.55;22.14;100427.59;5083587;28;20393;-61
2021/01/25 10:19:45;;;;;;;17.08;10.68;;;;;;;25.68;22.69;100425.94;5113897;28;20038;-71
2021/01/25 10:22:10;;;;;;;15.80;9.82;;;;;;;26.47;21.01;100428.50;5112911;28;20135;-68
2021/01/25 10:24:36;;;;;;;17.15;8.73;;;;;;;26.69;20.91;100435.88;5073626;28;20495;-70
2021/01/25 10:27:02;;;;;;;12.57;8.67;;;;;;;27.43;20.39;100446.47;5061113;28;20050;-71
2021/01/25 10:29:27;;;;;;;16.33;9.35;;;;;;;27.46;19.96;100452.16;5078729;28;20377;-70
2021/01/25 10:31:53;;;;;;;15.23;9.45;;;;;;;27.63;20.87;100459.63;5054983;28;20052;-70
2021/01/25 10:34:18;;;;;;;12.50;8.02;;;;;;;27.72;20.05;100458.88;5072966;28;20540;-62
2021/01/25 10:36:44;;;;;;;12.48;7.40;;;;;;;27.53;20.45;100470.94;5073575;28;20089;-70
2021/01/25 10:39:09;;;;;;;14.25;9.13;;;;;;;28.18;19.68;100470.38;5073618;28;20036;-70
2021/01/25 10:41:35;;;;;;;15.93;9.13;;;;;;;28.37;19.29;100472.75;5085342;28;20043;-69
2021/01/25 10:44:00;;;;;;;15.02;8.82;;;;;;;28.93;18.81;100479.44;5113608;28;20494;-68
2021/01/25 10:46:26;;;;;;;13.82;8.20;;;;;;;28.74;18.96;100464.13;5111238;28;20034;-68
2021/01/25 10:48:51;;;;;;;17.88;8.25;;;;;;;29.12;18.74;100474.34;5095567;28;20550;-68
2021/01/25 10:51:17;;;;;;;16.10;8.60;;;;;;;28.38;19.23;100474.41;5113440;28;20490;-68
2021/01/25 10:53:43;;;;;;;14.23;7.95;;;;;;;29.75;17.65;100481.97;5112969;28;20126;-69
2021/01/25 10:56:08;;;;;;;10.80;6.93;;;;;;;30.09;18.55;100484.00;5113323;28;20031;-68
2021/01/25 10:58:34;;;;;;;10.93;7.18;;;;;;;30.76;17.01;100487.59;5112891;28;20412;-68
2021/01/25 11:00:59;;;;;;;11.20;7.70;;;;;;;29.90;18.22;100494.34;5075060;28;20115;-69
2021/01/25 11:03:25;;;;;;;13.65;8.50;;;;;;;29.95;17.58;100498.03;5092167;28;20044;-67
2021/01/25 11:05:50;;;;;;;13.90;7.05;;;;;;;29.09;18.25;100499.00;5095545;28;20110;-68
2021/01/25 11:08:16;;;;;;;10.27;6.47;;;;;;;28.99;18.36;100498.22;5075514;28;20456;-69
2021/01/25 11:10:41;;;;;;;10.82;6.85;;;;;;;29.84;17.28;100495.69;5091516;28;20070;-68
2021/01/25 11:13:07;;;;;;;12.80;7.65;;;;;;;30.01;17.87;100513.25;5092795;28;20472;-67
2021/01/25 11:15:32;;;;;;;11.52;7.10;;;;;;;30.03;17.47;100514.53;5091176;28;20077;-67
2021/01/25 11:17:59;;;;;;;12.57;6.68;;;;;;;31.47;16.07;100520.69;5092699;28;20040;-69